Heflin, Alabama
Current Conditions -  °F | °C
As of 8:53 AM on Thursday 25 Dec 2014 (Local Time) from KANB Reporting Station
Scattered Clouds Scattered Clouds  
Wind Chill: 43°   Ceiling: Unl
Heat Index: 43°   Visibility: 10mi
Dew Point: 34°   Wind: 0mph
Humidity: 71%   Direction: NA
Pressure: 30.24"   Gusts: NA
Location:  33.65°N, 85.59°W
Report Text: KANB 251453Z AUTO 00000KT 10SM SCT020 06/01 A3024 RMK AO2 SLP245 T00610011 52019
Loading
Personal Weather Stations






























Interactive Weather Map New forecast layout! Learn more

10-Day Weather Forecast

Advertisements
Track Severe Weather on mobile